Port Aransas, TX

10:36 PM CDT on June 23, 2017 (GMT -0500)
Port Aransas | | Change Station
Active Advisory: Coastal Hazard Statement Active Notice: Coastal Hazard Statement

Elev 7 ft 27.81 °N, 97.09 °W | Updated 21 minutes ago

Partly Cloudy
Partly Cloudy
84 °F
Feels Like 94 °F
N
15
Wind Variable Wind from SE
Gusts 20 mph

Today
High -- | Low -- °F
--% Chance of Precip.
Yesterday
High -- | Low -- °F
Precip. -- in
Pressure 29.85 in
Visibility 10.0 miles
Clouds Scattered Clouds 1400 ft
Scattered Clouds 2700 ft
Scattered Clouds 3200 ft
Heat Index 94 °F
Dew Point 78 °F
Humidity 81%
Rainfall 0.00 in
Snow Depth Not available.
6:33 AM 8:27 PM
New Moon, 0% visible
METAR KRAS 240315Z AUTO 14013G17KT 10SM SCT014 SCT027 SCT032 29/25 A2985 RMK AO2 T02890254
Pressure 29.85 in
Visibility 10.0 miles
Clouds Scattered Clouds 1400 ft
Scattered Clouds 2700 ft
Scattered Clouds 3200 ft
Heat Index 94 °F
Dew Point 78 °F
Humidity 81%
Rainfall 0.00 in
Snow Depth Not available.
6:33 AM 8:27 PM
New Moon, 0% visible
METAR KRAS 240315Z AUTO 14013G17KT 10SM SCT014 SCT027 SCT032 29/25 A2985 RMK AO2 T02890254

Get Your Daily Forecast Email!

Thanks for signing up!

Be on the lookout for a verification email in your inbox.

You'll start receiving severe weather alerts in your inbox..

×

10-Day Weather Forecast

Almanac

Astronomy

Jun. 23, 2017 Rise Set
Actual Time
Civil Twilight
Nautical Twilight
Astronomical Twilight
Moon
Length of Visible Light
Length of Day
Tomorrow will be .
, % of the Moon is Illuminated

Today's Extremes

State Highs State Lows

Community

WunderPhotos

Category 6

Welcome to Category 6. This is the collective home for Weather Underground's featured writeups by Dr. Jeff Masters (right), Bob Henson (left), Chris Burt, and other regular contributors.

Nearby

Air Quality

  Air Quality AQ Index Pollutant
Not available.

Snow Depth

Station Depth Elevation

Earthquake Activity

City Distance Mag. Time & Date
Minimum magnitude displayed is 2.5.

Coastal Water Temperatures

Place Temperature

Stations

Nearby Weather Stations

Station Location Temp. Windchill Dew Point Humidity Wind Precip. Elev Updated Type
                   

Watches & Warnings

Coastal Hazard Statement
Issued: 8:54 PM CDT Jun. 23, 2017 – National Weather Service

... High rip current risk now in effect until 5 am CDT Saturday...

* timing... through the early morning hours Saturday.

* Impacts... strong and potentially life threatening rip currents
will occur along Gulf facing beaches of the middle Texas coast.
The surf will remain dangerous for all levels of swimmers.

Precautionary/preparedness actions...

Swim near a lifeguard. If caught in a rip current, relax and
float. Don't swim against the current. If able, swim in a
direction following the shoreline. If unable to escape, face the
shore and call or wave for help.



87